Time;durP1;ratioP1;P1;durP2;ratioP2;P2;SDS_P1;SDS_P2;PMS_P1;PMS_P2;Temp;Humidity;BMP_temperature;BMP_pressure;BME280_temperature;BME280_humidity;BME280_pressure;Samples;Min_cycle;Max_cycle;Signal;HPM_P1;HPM_P2
2022/02/23 00:01:54;;;;;;;6.00;4.40;;;7.50;99.90;;;;;;470096;253;28962;-76
2022/02/23 00:03:55;;;;;;;8.93;5.03;;;7.50;99.90;;;;;;470397;253;28001;-77
2022/02/23 00:05:56;;;;;;;10.43;4.60;;;7.50;99.90;;;;;;470306;253;28142;-76
2022/02/23 00:07:57;;;;;;;8.60;5.17;;;7.50;99.90;;;;;;470377;253;28363;-77
2022/02/23 00:09:59;;;;;;;6.93;5.20;;;7.50;99.90;;;;;;470088;253;28001;-76
2022/02/23 00:12:00;;;;;;;9.63;4.77;;;7.50;99.90;;;;;;470064;253;28784;-76
2022/02/23 00:14:01;;;;;;;6.90;4.57;;;7.60;99.90;;;;;;470144;253;28623;-77
2022/02/23 00:16:02;;;;;;;5.47;4.72;;;7.60;99.90;;;;;;470116;253;29126;-76
2022/02/23 00:18:04;;;;;;;7.13;5.70;;;7.60;99.90;;;;;;470102;253;27643;-77
2022/02/23 00:20:05;;;;;;;7.67;4.40;;;7.60;99.90;;;;;;470174;253;27797;-77
2022/02/23 00:22:06;;;;;;;8.60;4.37;;;7.50;99.90;;;;;;470098;253;28021;-75
2022/02/23 00:24:08;;;;;;;5.00;3.20;;;7.50;99.90;;;;;;470087;253;28537;-75
2022/02/23 00:26:09;;;;;;;4.40;3.20;;;7.20;99.90;;;;;;470061;253;28406;-76
2022/02/23 00:28:10;;;;;;;7.83;2.53;;;7.00;99.90;;;;;;470070;253;28158;-76
2022/02/23 00:30:11;;;;;;;5.00;2.30;;;6.80;99.90;;;;;;470132;253;28483;-76
2022/02/23 00:32:13;;;;;;;2.83;2.40;;;6.70;99.90;;;;;;470391;253;28058;-76
2022/02/23 00:34:14;;;;;;;2.05;1.85;;;6.60;99.90;;;;;;470364;253;27541;-76
2022/02/23 00:36:15;;;;;;;6.25;2.28;;;6.50;99.90;;;;;;470355;253;27555;-76
2022/02/23 00:38:16;;;;;;;3.20;1.60;;;6.50;99.90;;;;;;470080;253;27607;-75
2022/02/23 00:40:18;;;;;;;1.80;1.62;;;6.50;99.90;;;;;;470347;253;27526;-77
2022/02/23 00:42:19;;;;;;;2.05;1.83;;;6.40;99.90;;;;;;470076;253;27603;-76
2022/02/23 00:44:20;;;;;;;2.80;1.62;;;6.40;99.90;;;;;;470193;253;28017;-76
2022/02/23 00:46:22;;;;;;;3.67;1.80;;;6.40;99.90;;;;;;470093;253;28148;-76
2022/02/23 00:48:23;;;;;;;2.40;1.83;;;6.40;99.90;;;;;;470173;253;29060;-76
2022/02/23 00:50:24;;;;;;;1.60;1.50;;;6.40;99.90;;;;;;470110;253;27658;-76
2022/02/23 00:52:25;;;;;;;1.75;1.62;;;6.40;99.90;;;;;;470136;253;27681;-76
2022/02/23 00:54:27;;;;;;;4.60;2.10;;;6.40;99.90;;;;;;470128;253;27541;-76
2022/02/23 00:56:28;;;;;;;1.85;1.58;;;6.40;99.90;;;;;;470123;253;27578;-76
2022/02/23 00:58:29;;;;;;;1.90;1.40;;;6.40;99.90;;;;;;470119;253;28137;-77
2022/02/23 01:00:30;;;;;;;1.48;1.48;;;6.30;99.90;;;;;;470114;253;28206;-76
2022/02/23 01:02:32;;;;;;;1.40;1.30;;;6.40;99.90;;;;;;470084;253;27697;-75
2022/02/23 01:04:33;;;;;;;1.60;1.50;;;6.30;99.90;;;;;;470088;253;27673;-76
2022/02/23 01:06:34;;;;;;;2.05;1.30;;;6.30;99.90;;;;;;470059;253;27588;-76
2022/02/23 01:08:35;;;;;;;1.30;1.20;;;6.30;99.90;;;;;;470028;253;27620;-76
2022/02/23 01:10:37;;;;;;;1.58;1.48;;;6.30;99.90;;;;;;470072;253;27611;-76
2022/02/23 01:12:38;;;;;;;1.52;1.45;;;6.20;99.90;;;;;;470048;253;28057;-76
2022/02/23 01:14:39;;;;;;;2.37;1.50;;;6.20;99.90;;;;;;470050;253;28005;-76
2022/02/23 01:16:40;;;;;;;1.45;1.35;;;6.20;99.90;;;;;;470068;253;27571;-76
2022/02/23 01:18:42;;;;;;;1.87;1.70;;;6.10;99.90;;;;;;470079;253;27596;-76
2022/02/23 01:20:43;;;;;;;3.50;1.70;;;6.10;99.90;;;;;;470084;253;27601;-76
2022/02/23 01:22:44;;;;;;;1.85;1.62;;;6.10;99.90;;;;;;470044;253;27590;-76
2022/02/23 01:24:45;;;;;;;2.08;1.30;;;6.10;99.90;;;;;;470065;253;27525;-76
2022/02/23 01:26:47;;;;;;;1.70;1.60;;;6.00;99.90;;;;;;470071;253;28071;-76
2022/02/23 01:28:48;;;;;;;2.40;1.55;;;6.00;99.90;;;;;;470071;253;28069;-76
2022/02/23 01:30:49;;;;;;;2.12;1.48;;;6.00;99.90;;;;;;470056;253;27628;-76
2022/02/23 01:32:50;;;;;;;1.62;1.42;;;6.00;99.90;;;;;;470059;253;27593;-76
2022/02/23 01:34:52;;;;;;;1.87;1.40;;;6.00;99.90;;;;;;470052;253;27533;-76
2022/02/23 01:36:53;;;;;;;1.50;1.40;;;6.00;99.90;;;;;;470087;253;27598;-76
2022/02/23 01:38:54;;;;;;;1.50;1.40;;;6.00;99.90;;;;;;470070;253;27732;-76
2022/02/23 01:40:55;;;;;;;1.80;1.50;;;6.00;99.90;;;;;;470067;253;28053;-76
2022/02/23 01:42:57;;;;;;;2.55;1.55;;;6.00;99.90;;;;;;470030;253;28088;-76
2022/02/23 01:44:58;;;;;;;1.87;1.58;;;5.90;99.90;;;;;;470066;253;27635;-76
2022/02/23 01:46:59;;;;;;;1.50;1.40;;;5.90;99.90;;;;;;470075;253;27531;-76
2022/02/23 01:49:00;;;;;;;3.00;1.60;;;5.90;99.90;;;;;;470064;253;27657;-76
2022/02/23 01:51:02;;;;;;;1.30;1.20;;;5.90;99.90;;;;;;470046;253;27546;-76
2022/02/23 01:53:03;;;;;;;1.40;1.30;;;5.90;99.90;;;;;;470014;253;27609;-76
2022/02/23 01:55:04;;;;;;;1.27;1.27;;;5.90;99.90;;;;;;470031;253;27593;-76
2022/02/23 01:57:06;;;;;;;1.50;1.40;;;5.90;99.90;;;;;;469993;253;28009;-76
2022/02/23 01:59:07;;;;;;;1.17;1.10;;;5.90;99.90;;;;;;469950;253;28547;-76
2022/02/23 02:01:10;;;;;;;1.30;1.12;;;5.90;99.90;;;;;;469941;253;27535;-76
2022/02/23 02:03:09;;;;;;;1.60;1.50;;;5.90;99.90;;;;;;469842;253;27573;-76
2022/02/23 02:05:11;;;;;;;3.05;1.30;;;5.90;99.90;;;;;;470058;253;27581;-77
2022/02/23 02:07:12;;;;;;;1.10;1.10;;;5.80;99.90;;;;;;470051;253;27648;-76
2022/02/23 02:09:13;;;;;;;1.12;1.10;;;5.90;99.90;;;;;;470037;253;27603;-76
2022/02/23 02:11:15;;;;;;;1.10;1.10;;;5.80;99.90;;;;;;470028;253;27531;-76
2022/02/23 02:13:16;;;;;;;2.15;1.30;;;5.80;99.90;;;;;;470019;253;28096;-76
2022/02/23 02:15:17;;;;;;;1.58;1.17;;;5.70;99.90;;;;;;470055;253;28147;-76
2022/02/23 02:17:18;;;;;;;1.30;1.30;;;5.70;99.90;;;;;;470087;253;27602;-76
2022/02/23 02:19:19;;;;;;;1.30;1.20;;;5.70;99.90;;;;;;470081;253;27592;-76
2022/02/23 02:21:21;;;;;;;1.40;1.30;;;5.70;99.90;;;;;;470057;253;27607;-76
2022/02/23 02:23:22;;;;;;;1.65;1.25;;;5.60;99.90;;;;;;470048;253;27621;-76
2022/02/23 02:25:23;;;;;;;1.20;1.20;;;5.60;99.90;;;;;;470068;253;27609;-76
2022/02/23 02:27:24;;;;;;;1.33;1.05;;;5.60;99.90;;;;;;470072;253;27954;-76
2022/02/23 02:29:26;;;;;;;2.15;1.45;;;5.60;99.90;;;;;;470069;253;28129;-73
2022/02/23 02:31:27;;;;;;;1.42;1.33;;;5.60;99.90;;;;;;470064;253;28962;-73
2022/02/23 02:33:28;;;;;;;1.30;1.20;;;5.60;99.90;;;;;;470110;253;27543;-73
2022/02/23 02:35:33;;;;;;;1.62;1.23;;;5.60;99.90;;;;;;470089;253;27652;-74
2022/02/23 02:37:31;;;;;;;1.40;1.30;;;5.50;99.90;;;;;;469803;253;27513;-74
2022/02/23 02:39:34;;;;;;;1.27;1.10;;;5.50;99.90;;;;;;470051;253;27974;-74
2022/02/23 02:41:33;;;;;;;1.20;1.10;;;5.50;99.90;;;;;;469904;253;27586;-74
2022/02/23 02:43:34;;;;;;;1.10;1.10;;;5.50;99.90;;;;;;470065;253;27559;-74
2022/02/23 02:45:36;;;;;;;1.42;1.33;;;5.50;99.90;;;;;;470086;253;28051;-76
2022/02/23 02:47:37;;;;;;;1.37;1.20;;;5.40;99.90;;;;;;470032;253;27986;-76
2022/02/23 02:49:38;;;;;;;1.60;1.50;;;5.40;99.90;;;;;;470034;253;28146;-76
2022/02/23 02:51:39;;;;;;;1.42;1.33;;;5.30;99.90;;;;;;470052;253;27574;-73
2022/02/23 02:53:41;;;;;;;2.65;1.30;;;5.20;99.90;;;;;;470059;253;27545;-74
2022/02/23 02:55:42;;;;;;;4.55;1.30;;;5.20;99.90;;;;;;470071;253;27569;-74
2022/02/23 02:57:43;;;;;;;1.27;1.27;;;5.10;99.90;;;;;;470019;253;27613;-76
2022/02/23 02:59:44;;;;;;;2.35;1.42;;;5.10;99.90;;;;;;470032;253;27594;-76
2022/02/23 03:01:46;;;;;;;1.45;1.35;;;5.00;99.90;;;;;;470048;253;27588;-74
2022/02/23 03:03:47;;;;;;;2.95;1.60;;;4.90;99.90;;;;;;470053;253;28101;-73
2022/02/23 03:05:48;;;;;;;1.52;1.45;;;4.80;99.90;;;;;;470021;253;28049;-74
2022/02/23 03:07:49;;;;;;;1.48;1.40;;;4.80;99.90;;;;;;470013;253;28066;-74
2022/02/23 03:09:51;;;;;;;1.65;1.55;;;4.70;99.90;;;;;;470018;253;27581;-74
2022/02/23 03:11:52;;;;;;;1.90;1.67;;;4.70;99.90;;;;;;470060;253;28015;-73
2022/02/23 03:13:53;;;;;;;1.50;1.40;;;4.70;99.90;;;;;;470040;253;28167;-73
2022/02/23 03:15:55;;;;;;;1.73;1.62;;;4.60;99.90;;;;;;470053;253;27693;-74
2022/02/23 03:17:56;;;;;;;1.70;1.60;;;4.60;99.90;;;;;;470046;253;27561;-73
2022/02/23 03:19:57;;;;;;;1.45;1.35;;;4.70;99.90;;;;;;470061;253;27617;-73
2022/02/23 03:21:58;;;;;;;2.28;1.70;;;4.70;99.90;;;;;;470013;253;27642;-74
2022/02/23 03:24:00;;;;;;;1.45;1.35;;;4.70;99.90;;;;;;470041;253;27518;-74
2022/02/23 03:26:01;;;;;;;1.67;1.58;;;4.60;99.90;;;;;;470058;253;27574;-72
2022/02/23 03:28:02;;;;;;;1.83;1.50;;;4.60;99.90;;;;;;470025;253;27606;-73
2022/02/23 03:30:03;;;;;;;1.95;1.85;;;4.50;99.90;;;;;;470035;253;28002;-74
2022/02/23 03:32:05;;;;;;;2.00;1.90;;;4.40;99.90;;;;;;470032;253;28194;-73
2022/02/23 03:34:06;;;;;;;2.08;1.75;;;4.30;99.90;;;;;;470032;253;28007;-74
2022/02/23 03:36:07;;;;;;;1.73;1.62;;;4.20;99.90;;;;;;469998;253;27581;-73
2022/02/23 03:38:08;;;;;;;3.25;1.75;;;4.10;99.90;;;;;;470027;253;27557;-74
2022/02/23 03:40:10;;;;;;;1.65;1.55;;;4.00;99.90;;;;;;470060;253;27534;-74
2022/02/23 03:42:11;;;;;;;1.77;1.67;;;3.90;99.90;;;;;;470057;253;27576;-74
2022/02/23 03:44:12;;;;;;;1.58;1.52;;;3.90;99.90;;;;;;470044;253;27653;-74
2022/02/23 03:46:13;;;;;;;1.73;1.62;;;3.90;99.90;;;;;;470046;253;27601;-76
2022/02/23 03:48:15;;;;;;;1.62;1.50;;;3.90;99.90;;;;;;470033;253;27600;-76
2022/02/23 03:50:16;;;;;;;1.33;1.33;;;3.80;99.90;;;;;;470023;253;27685;-76
2022/02/23 03:52:17;;;;;;;1.73;1.67;;;3.80;99.90;;;;;;470006;253;27566;-75
2022/02/23 03:54:20;;;;;;;1.58;1.48;;;3.80;99.90;;;;;;469995;253;27528;-76
2022/02/23 03:56:38;;;;;;;1.42;1.33;;;3.70;99.90;;;;;;469924;253;28049;-74
2022/02/23 03:58:39;;;;;;;1.67;1.58;;;3.80;99.90;;;;;;470016;253;28111;-76
2022/02/23 04:00:41;;;;;;;1.87;1.77;;;3.70;99.90;;;;;;470027;253;27984;-73
2022/02/23 04:02:42;;;;;;;1.80;1.70;;;3.70;99.90;;;;;;470053;253;27589;-74
2022/02/23 04:04:43;;;;;;;1.55;1.50;;;3.70;99.90;;;;;;470070;253;27655;-73
2022/02/23 04:06:44;;;;;;;1.37;1.30;;;3.70;99.90;;;;;;470051;253;27583;-74
2022/02/23 04:08:46;;;;;;;1.95;1.85;;;3.70;99.90;;;;;;470056;253;27574;-75
2022/02/23 04:10:47;;;;;;;2.35;1.40;;;3.70;99.90;;;;;;470051;253;27525;-74
2022/02/23 04:12:48;;;;;;;1.65;1.55;;;3.70;99.90;;;;;;470010;253;27944;-75
2022/02/23 04:14:49;;;;;;;1.20;1.20;;;3.80;99.90;;;;;;470043;253;27592;-75
2022/02/23 04:16:51;;;;;;;1.45;1.45;;;3.90;99.90;;;;;;470077;253;27529;-74
2022/02/23 04:18:52;;;;;;;1.10;1.10;;;3.90;99.90;;;;;;470063;253;27660;-74
2022/02/23 04:20:53;;;;;;;1.30;1.30;;;3.90;99.90;;;;;;470041;253;27535;-74
2022/02/23 04:22:54;;;;;;;1.30;1.30;;;3.90;99.90;;;;;;470045;253;28092;-74
2022/02/23 04:24:56;;;;;;;1.83;1.73;;;3.80;99.90;;;;;;470053;253;28072;-74
2022/02/23 04:26:57;;;;;;;1.50;1.40;;;3.80;99.90;;;;;;470072;253;27981;-74
2022/02/23 04:28:58;;;;;;;1.85;1.75;;;3.90;99.90;;;;;;470071;253;28087;-74
2022/02/23 04:30:59;;;;;;;1.95;1.70;;;3.90;99.90;;;;;;470076;253;27709;-74
2022/02/23 04:33:01;;;;;;;2.17;1.45;;;3.90;99.90;;;;;;470040;253;27569;-74
2022/02/23 04:35:02;;;;;;;1.70;1.60;;;3.80;99.90;;;;;;470042;253;27573;-74
2022/02/23 04:37:03;;;;;;;1.67;1.58;;;3.70;99.90;;;;;;470069;253;27626;-73
2022/02/23 04:39:04;;;;;;;1.60;1.50;;;3.70;99.90;;;;;;470049;253;27569;-75
2022/02/23 04:41:06;;;;;;;1.90;1.60;;;3.60;99.90;;;;;;470048;253;27635;-74
2022/02/23 04:43:07;;;;;;;1.70;1.60;;;3.50;99.90;;;;;;470036;253;27586;-74
2022/02/23 04:45:08;;;;;;;1.60;1.50;;;3.40;99.90;;;;;;470015;253;27577;-74
2022/02/23 04:47:09;;;;;;;1.42;1.33;;;3.30;99.90;;;;;;470002;253;27539;-74
2022/02/23 04:49:11;;;;;;;2.33;1.92;;;3.20;99.90;;;;;;470039;253;27664;-76
2022/02/23 04:51:12;;;;;;;1.70;1.60;;;3.20;99.90;;;;;;470041;253;27990;-74
2022/02/23 04:53:13;;;;;;;1.60;1.50;;;3.20;99.90;;;;;;470042;253;28090;-74
2022/02/23 04:55:14;;;;;;;1.75;1.65;;;3.10;99.90;;;;;;470048;253;29356;-74
2022/02/23 04:57:16;;;;;;;2.67;1.95;;;3.10;99.90;;;;;;470044;253;28015;-74
2022/02/23 04:59:17;;;;;;;1.98;1.77;;;3.00;99.90;;;;;;470031;253;27591;-73
2022/02/23 05:01:18;;;;;;;2.22;2.08;;;3.00;99.90;;;;;;470059;253;27539;-73
2022/02/23 05:03:19;;;;;;;2.12;1.95;;;3.00;99.90;;;;;;470038;253;27728;-74
2022/02/23 05:05:21;;;;;;;2.00;1.90;;;3.00;99.90;;;;;;470073;253;27610;-74
2022/02/23 05:07:24;;;;;;;1.90;1.80;;;3.10;99.90;;;;;;470060;253;27536;-74
2022/02/23 05:09:23;;;;;;;2.58;2.20;;;3.00;99.90;;;;;;469922;253;27571;-74
2022/02/23 05:11:24;;;;;;;2.17;2.08;;;3.00;99.90;;;;;;470041;253;27535;-74
2022/02/23 05:13:32;;;;;;;1.90;1.80;;;3.00;99.90;;;;;;470027;253;27689;-74
2022/02/23 05:15:30;;;;;;;1.90;1.80;;;2.90;99.90;;;;;;469681;253;27550;-73
2022/02/23 05:17:31;;;;;;;1.80;1.70;;;2.90;99.90;;;;;;470026;253;27660;-74
2022/02/23 05:19:34;;;;;;;1.80;1.70;;;2.90;99.90;;;;;;470034;253;27536;-74
2022/02/23 05:21:33;;;;;;;2.05;1.95;;;2.90;99.90;;;;;;469946;253;27569;-74
2022/02/23 05:23:35;;;;;;;1.90;1.80;;;2.90;99.90;;;;;;470046;253;27593;-73
2022/02/23 05:25:36;;;;;;;3.10;1.90;;;2.80;99.90;;;;;;470003;253;27669;-74
2022/02/23 05:27:37;;;;;;;4.75;1.98;;;2.80;99.90;;;;;;470066;253;27580;-74
2022/02/23 05:29:38;;;;;;;2.78;2.22;;;2.70;99.90;;;;;;470038;253;27632;-73
2022/02/23 05:31:40;;;;;;;2.17;1.98;;;2.70;99.90;;;;;;470071;253;27571;-73
2022/02/23 05:33:41;;;;;;;2.15;1.95;;;2.70;99.90;;;;;;470017;253;27526;-74
2022/02/23 05:35:42;;;;;;;2.00;1.90;;;2.70;99.90;;;;;;470034;253;28001;-74
2022/02/23 05:37:43;;;;;;;3.58;2.10;;;2.70;99.90;;;;;;470041;253;28053;-74
2022/02/23 05:39:45;;;;;;;1.98;1.87;;;2.70;99.90;;;;;;470059;253;28187;-74
2022/02/23 05:41:46;;;;;;;2.20;2.00;;;2.70;99.90;;;;;;470053;253;28164;-74
2022/02/23 05:43:47;;;;;;;4.10;2.45;;;2.60;99.90;;;;;;470050;253;27613;-74
2022/02/23 05:45:49;;;;;;;1.98;1.87;;;2.60;99.90;;;;;;470024;253;27637;-74
2022/02/23 05:47:50;;;;;;;1.77;1.67;;;2.60;99.90;;;;;;470080;253;27639;-74
2022/02/23 05:49:51;;;;;;;2.08;1.80;;;2.50;99.90;;;;;;470025;253;27550;-74
2022/02/23 05:51:52;;;;;;;2.20;2.00;;;2.40;99.90;;;;;;470025;253;27605;-74
2022/02/23 05:53:53;;;;;;;2.35;2.15;;;2.40;99.90;;;;;;470011;253;27536;-73
2022/02/23 05:55:55;;;;;;;2.30;2.17;;;2.30;99.90;;;;;;470040;253;27584;-74
2022/02/23 05:57:56;;;;;;;3.15;2.55;;;2.30;99.90;;;;;;470012;253;27588;-74
2022/02/23 05:59:57;;;;;;;2.05;1.95;;;2.20;99.90;;;;;;470057;253;27654;-74
2022/02/23 06:01:58;;;;;;;2.05;1.95;;;2.20;99.90;;;;;;470058;253;27568;-74
2022/02/23 06:04:00;;;;;;;1.95;1.80;;;2.20;99.90;;;;;;470068;253;28022;-73
2022/02/23 06:06:01;;;;;;;2.00;1.90;;;2.20;99.90;;;;;;470065;253;27997;-74
2022/02/23 06:08:02;;;;;;;1.80;1.70;;;2.10;99.90;;;;;;470094;251;28067;-75
2022/02/23 06:10:05;;;;;;;2.67;2.42;;;2.10;99.90;;;;;;470041;253;27632;-74
2022/02/23 06:12:05;;;;;;;3.00;2.40;;;2.10;99.90;;;;;;469988;253;27705;-74
2022/02/23 06:14:06;;;;;;;2.95;2.72;;;2.10;99.90;;;;;;470028;253;27542;-74
2022/02/23 06:16:07;;;;;;;2.42;2.22;;;2.10;99.90;;;;;;470031;253;27603;-74
2022/02/23 06:18:08;;;;;;;2.50;2.30;;;2.10;99.90;;;;;;470043;253;27589;-75
2022/02/23 06:20:10;;;;;;;3.10;2.85;;;2.10;99.90;;;;;;470033;253;27545;-74
2022/02/23 06:22:11;;;;;;;3.00;2.80;;;2.10;99.90;;;;;;470060;253;27587;-74
2022/02/23 06:24:12;;;;;;;2.92;2.72;;;2.00;99.90;;;;;;470032;253;27632;-73
2022/02/23 06:26:13;;;;;;;3.17;2.97;;;2.10;99.90;;;;;;470026;253;27565;-74
2022/02/23 06:28:15;;;;;;;3.00;2.80;;;2.10;99.90;;;;;;470046;253;27575;-74
2022/02/23 06:30:16;;;;;;;2.92;2.72;;;2.20;99.90;;;;;;470020;253;27558;-74
2022/02/23 06:32:17;;;;;;;2.75;2.55;;;2.10;99.90;;;;;;470036;253;28032;-74
2022/02/23 06:34:18;;;;;;;3.22;2.92;;;2.10;99.90;;;;;;470017;253;28015;-74
2022/02/23 06:36:20;;;;;;;2.78;2.58;;;2.10;99.90;;;;;;470004;253;29792;-74
2022/02/23 06:38:21;;;;;;;2.65;2.45;;;2.20;99.90;;;;;;470049;253;27608;-74
2022/02/23 06:40:22;;;;;;;3.17;2.87;;;2.10;99.90;;;;;;470027;253;27559;-73
2022/02/23 06:42:23;;;;;;;2.83;2.60;;;2.10;99.90;;;;;;470050;253;27586;-74
2022/02/23 06:44:25;;;;;;;2.87;2.67;;;2.10;99.90;;;;;;470011;253;27691;-74
2022/02/23 06:46:26;;;;;;;2.97;2.65;;;2.10;99.90;;;;;;470022;253;27575;-74
2022/02/23 06:48:28;;;;;;;2.92;2.42;;;2.10;99.90;;;;;;470039;251;27988;-74
2022/02/23 06:50:28;;;;;;;4.10;3.00;;;2.00;99.90;;;;;;469974;253;27654;-74
2022/02/23 06:52:30;;;;;;;2.80;2.60;;;2.00;99.90;;;;;;470055;253;27563;-75
2022/02/23 06:54:32;;;;;;;2.67;2.47;;;2.00;99.90;;;;;;470031;253;27534;-74
2022/02/23 06:56:32;;;;;;;3.10;2.78;;;2.00;99.90;;;;;;470053;253;27574;-74
2022/02/23 06:58:33;;;;;;;2.37;2.22;;;1.90;99.90;;;;;;470043;253;28219;-74
2022/02/23 07:00:35;;;;;;;3.00;2.70;;;2.00;99.90;;;;;;470033;253;28048;-74
2022/02/23 07:02:36;;;;;;;4.47;2.50;;;2.00;99.90;;;;;;470030;253;28065;-74
2022/02/23 07:04:37;;;;;;;2.85;2.65;;;2.00;99.90;;;;;;470019;253;27989;-74
2022/02/23 07:06:38;;;;;;;2.80;2.60;;;2.00;99.90;;;;;;470022;253;27641;-74
2022/02/23 07:08:40;;;;;;;2.87;2.67;;;2.10;99.90;;;;;;470063;253;27650;-74
2022/02/23 07:10:41;;;;;;;2.92;2.72;;;2.00;99.90;;;;;;470035;253;27533;-74
2022/02/23 07:12:42;;;;;;;2.80;2.60;;;1.90;99.90;;;;;;470041;253;27664;-74
2022/02/23 07:14:44;;;;;;;3.78;3.47;;;1.90;99.90;;;;;;470077;253;27625;-74
2022/02/23 07:16:45;;;;;;;3.60;3.30;;;1.90;99.90;;;;;;470066;253;27592;-74
2022/02/23 07:18:46;;;;;;;3.67;3.37;;;1.90;99.90;;;;;;470056;253;28022;-75
2022/02/23 07:20:47;;;;;;;3.90;3.30;;;1.90;99.90;;;;;;470065;253;27555;-74
2022/02/23 07:22:49;;;;;;;3.00;2.80;;;2.00;99.90;;;;;;470077;253;27649;-74
2022/02/23 07:24:50;;;;;;;3.60;3.30;;;2.00;99.90;;;;;;470093;253;27603;-74
2022/02/23 07:26:51;;;;;;;3.25;3.00;;;2.00;99.90;;;;;;470064;253;28089;-74
2022/02/23 07:28:52;;;;;;;4.10;3.60;;;2.10;99.90;;;;;;470092;253;28164;-74
2022/02/23 07:30:53;;;;;;;4.70;3.80;;;2.10;99.90;;;;;;470094;253;29087;-75
2022/02/23 07:32:55;;;;;;;4.00;3.60;;;2.00;99.90;;;;;;470077;253;28151;-74
2022/02/23 07:34:56;;;;;;;3.62;3.33;;;2.00;99.90;;;;;;470072;253;27542;-75
2022/02/23 07:36:57;;;;;;;4.00;3.67;;;2.10;99.90;;;;;;470061;253;27559;-74
2022/02/23 07:38:59;;;;;;;3.85;3.25;;;2.10;99.90;;;;;;470077;253;27625;-75
2022/02/23 07:41:00;;;;;;;3.97;3.53;;;2.10;99.90;;;;;;470081;253;27552;-74
2022/02/23 07:43:03;;;;;;;3.75;3.20;;;2.20;99.90;;;;;;470043;253;27645;-74
2022/02/23 07:45:02;;;;;;;3.30;3.10;;;2.30;99.90;;;;;;469966;253;27547;-74
2022/02/23 07:47:03;;;;;;;3.08;2.87;;;2.40;99.90;;;;;;470040;253;27585;-74
2022/02/23 07:49:05;;;;;;;3.30;3.00;;;2.50;99.90;;;;;;470081;253;27577;-75
2022/02/23 07:51:06;;;;;;;3.50;3.12;;;2.50;99.90;;;;;;470056;253;27553;-74
2022/02/23 07:53:07;;;;;;;3.25;3.05;;;2.50;99.90;;;;;;470068;253;27580;-74
2022/02/23 07:55:09;;;;;;;3.60;2.60;;;2.50;99.90;;;;;;470060;253;28039;-74
2022/02/23 07:57:10;;;;;;;2.70;2.50;;;2.60;99.90;;;;;;470047;253;28143;-74
2022/02/23 07:59:11;;;;;;;2.80;2.60;;;2.60;99.90;;;;;;470064;253;29430;-74
2022/02/23 08:01:12;;;;;;;2.90;2.55;;;2.60;99.90;;;;;;470042;253;28001;-75
2022/02/23 08:03:14;;;;;;;2.67;2.47;;;2.60;99.90;;;;;;470041;253;27564;-75
2022/02/23 08:05:15;;;;;;;2.33;2.22;;;2.70;99.90;;;;;;470062;253;27571;-74
2022/02/23 08:07:16;;;;;;;2.95;2.65;;;2.70;99.90;;;;;;470042;253;27570;-74
2022/02/23 08:09:17;;;;;;;2.83;2.62;;;2.70;99.90;;;;;;470043;253;27558;-74
2022/02/23 08:11:19;;;;;;;6.15;2.90;;;2.70;99.90;;;;;;470053;253;27555;-74
2022/02/23 08:13:20;;;;;;;2.80;2.60;;;2.80;99.90;;;;;;470025;253;27585;-75
2022/02/23 08:20:00;;;;;;;3.50;3.20;;;3.20;99.90;;;;;;470070;253;27561;-75
2022/02/23 08:22:03;;;;;;;3.35;3.15;;;3.30;99.90;;;;;;470052;253;28155;-75
2022/02/23 08:24:03;;;;;;;3.37;3.08;;;3.30;99.90;;;;;;469967;253;28084;-74
2022/02/23 08:26:04;;;;;;;2.97;2.72;;;3.40;99.90;;;;;;470040;253;28107;-75
2022/02/23 08:28:05;;;;;;;2.83;2.62;;;3.40;99.90;;;;;;470052;253;29107;-74
2022/02/23 08:30:08;;;;;;;6.25;2.95;;;3.50;99.90;;;;;;470034;253;27583;-75
2022/02/23 08:32:08;;;;;;;3.03;2.83;;;3.60;99.90;;;;;;470002;253;27600;-73
2022/02/23 08:34:09;;;;;;;3.58;2.92;;;3.70;99.90;;;;;;470032;253;27631;-74
2022/02/23 08:36:10;;;;;;;2.47;2.35;;;3.70;99.90;;;;;;470068;253;27611;-74
2022/02/23 08:38:12;;;;;;;3.45;2.78;;;3.80;99.90;;;;;;470053;253;27556;-75
2022/02/23 08:40:13;;;;;;;3.05;2.37;;;3.80;99.90;;;;;;470047;253;27572;-74
2022/02/23 08:42:14;;;;;;;2.40;2.20;;;3.90;99.90;;;;;;470091;253;27577;-74
2022/02/23 08:44:15;;;;;;;2.60;2.40;;;4.00;99.90;;;;;;470068;253;27553;-75
2022/02/23 08:46:17;;;;;;;2.62;2.42;;;4.20;99.90;;;;;;470061;253;27571;-75
2022/02/23 08:48:18;;;;;;;2.80;2.50;;;4.20;99.90;;;;;;470092;253;27995;-74
2022/02/23 08:50:19;;;;;;;3.37;3.08;;;4.30;99.90;;;;;;470042;253;28027;-74
2022/02/23 08:52:21;;;;;;;4.55;3.37;;;4.30;99.90;;;;;;470107;253;28065;-76
2022/02/23 08:54:22;;;;;;;4.87;3.90;;;4.30;99.90;;;;;;470066;253;28057;-75
2022/02/23 08:56:23;;;;;;;4.60;3.62;;;4.30;99.90;;;;;;470048;253;27656;-75
2022/02/23 08:58:24;;;;;;;4.32;3.75;;;4.30;99.90;;;;;;470030;253;27574;-74
2022/02/23 09:00:26;;;;;;;7.00;4.10;;;4.30;99.90;;;;;;470041;253;27585;-75
2022/02/23 09:02:27;;;;;;;3.55;3.15;;;4.40;99.90;;;;;;470063;253;27688;-76
2022/02/23 09:04:28;;;;;;;3.92;3.25;;;4.50;99.90;;;;;;470056;253;27550;-74
2022/02/23 09:06:29;;;;;;;3.87;3.42;;;4.50;99.90;;;;;;470042;253;27577;-75
2022/02/23 09:08:31;;;;;;;4.60;3.00;;;4.50;99.90;;;;;;470030;253;27612;-75
2022/02/23 09:10:32;;;;;;;3.80;2.97;;;4.60;99.90;;;;;;470044;253;27571;-74
2022/02/23 09:12:33;;;;;;;5.40;2.90;;;4.60;99.90;;;;;;470069;253;27675;-74
2022/02/23 09:14:34;;;;;;;4.68;3.12;;;4.70;99.90;;;;;;470025;253;27651;-74
2022/02/23 09:16:36;;;;;;;5.18;3.15;;;4.80;99.90;;;;;;470051;253;28004;-75
2022/02/23 09:18:37;;;;;;;5.32;3.50;;;4.80;99.90;;;;;;470046;253;27978;-74
2022/02/23 09:20:38;;;;;;;4.12;3.12;;;4.80;99.90;;;;;;470061;253;28056;-75
2022/02/23 09:22:39;;;;;;;5.07;3.53;;;4.90;99.90;;;;;;470046;253;27594;-74
2022/02/23 09:24:41;;;;;;;4.07;3.05;;;4.90;99.90;;;;;;470049;253;27631;-75
2022/02/23 09:26:42;;;;;;;4.28;3.10;;;4.90;99.90;;;;;;470059;253;27555;-74
2022/02/23 09:28:43;;;;;;;4.07;2.70;;;5.00;99.90;;;;;;470037;253;27683;-75
2022/02/23 09:30:44;;;;;;;4.85;3.35;;;5.00;99.90;;;;;;470034;253;27575;-74
2022/02/23 09:32:49;;;;;;;6.50;3.05;;;5.00;99.90;;;;;;470044;253;27577;-75
2022/02/23 09:34:47;;;;;;;4.35;3.17;;;5.10;99.90;;;;;;469764;253;27555;-76
2022/02/23 09:36:48;;;;;;;3.40;2.67;;;5.30;99.90;;;;;;470067;253;27577;-74
2022/02/23 09:38:51;;;;;;;5.35;3.00;;;5.30;99.90;;;;;;470050;253;27978;-74
2022/02/23 09:40:52;;;;;;;10.00;3.47;;;5.50;99.90;;;;;;469984;253;28102;-76
2022/02/23 09:42:52;;;;;;;5.32;3.20;;;5.70;99.90;;;;;;469958;253;27583;-76
2022/02/23 09:44:53;;;;;;;6.18;3.10;;;5.90;99.90;;;;;;470041;253;27557;-74
2022/02/23 09:46:54;;;;;;;5.03;2.80;;;5.90;99.90;;;;;;470060;253;27574;-74
2022/02/23 09:48:58;;;;;;;5.10;2.95;;;5.90;99.90;;;;;;470063;253;27615;-74
2022/02/23 09:50:57;;;;;;;4.03;3.08;;;5.80;99.90;;;;;;469869;253;27517;-74
2022/02/23 09:52:58;;;;;;;5.97;3.00;;;5.80;99.90;;;;;;470062;253;27611;-77
2022/02/23 09:54:59;;;;;;;3.50;2.80;;;5.70;99.90;;;;;;470083;253;27968;-76
2022/02/23 09:57:01;;;;;;;7.05;3.05;;;5.80;99.90;;;;;;470055;253;28044;-74
2022/02/23 09:59:02;;;;;;;3.03;2.80;;;5.90;99.90;;;;;;470054;253;28070;-74
2022/02/23 10:01:04;;;;;;;7.03;3.37;;;6.00;99.90;;;;;;470075;253;27546;-76
2022/02/23 10:03:05;;;;;;;8.40;3.45;;;6.00;99.90;;;;;;470009;253;27674;-76
2022/02/23 10:05:06;;;;;;;5.00;3.25;;;6.10;99.90;;;;;;470026;253;27601;-77
2022/02/23 10:07:07;;;;;;;7.10;3.60;;;6.10;99.90;;;;;;470055;253;27579;-76
2022/02/23 10:09:11;;;;;;;5.30;3.35;;;6.10;99.90;;;;;;470082;253;27657;-74
2022/02/23 10:11:13;;;;;;;6.45;2.90;;;6.10;99.90;;;;;;470030;253;27611;-75
2022/02/23 10:13:14;;;;;;;5.45;4.00;;;6.10;99.90;;;;;;470080;253;27549;-77
2022/02/23 10:15:18;;;;;;;3.42;3.12;;;6.20;99.90;;;;;;470070;253;27651;-77
2022/02/23 10:17:19;;;;;;;3.95;2.90;;;6.20;99.90;;;;;;470088;253;28223;-74
2022/02/23 10:19:23;;;;;;;3.83;3.15;;;6.20;99.90;;;;;;470072;253;29093;-73
2022/02/23 10:21:22;;;;;;;9.30;3.15;;;6.10;99.90;;;;;;469750;253;27573;-75
2022/02/23 10:23:25;;;;;;;4.40;3.05;;;6.10;99.90;;;;;;470133;253;27662;-73
2022/02/23 10:25:24;;;;;;;4.95;2.80;;;6.10;99.90;;;;;;470007;251;27670;-73
2022/02/23 10:27:25;;;;;;;3.62;2.90;;;6.20;99.90;;;;;;470329;253;27661;-77
2022/02/23 10:29:27;;;;;;;5.10;2.55;;;6.10;99.90;;;;;;470363;253;27531;-75
2022/02/23 10:31:28;;;;;;;3.55;2.40;;;6.10;99.90;;;;;;470341;253;27530;-75
2022/02/23 10:33:30;;;;;;;3.42;3.00;;;6.10;99.90;;;;;;470093;253;28050;-74
2022/02/23 10:35:30;;;;;;;2.75;2.53;;;6.10;99.90;;;;;;470059;253;27534;-74
2022/02/23 10:37:32;;;;;;;2.45;2.25;;;6.10;99.90;;;;;;470101;253;27574;-73
2022/02/23 10:39:33;;;;;;;3.65;2.70;;;6.20;99.90;;;;;;470084;253;27538;-75
2022/02/23 10:41:37;;;;;;;7.32;2.97;;;6.30;99.90;;;;;;470070;253;27535;-74
2022/02/23 10:43:36;;;;;;;9.88;3.28;;;6.50;99.90;;;;;;469885;253;27580;-73
2022/02/23 10:45:37;;;;;;;7.50;2.90;;;6.50;99.90;;;;;;470067;253;28076;-74